Time;durP1;ratioP1;P1;durP2;ratioP2;P2;SDS_P1;SDS_P2;PMS_P1;PMS_P2;Temp;Humidity;BMP_temperature;BMP_pressure;BME280_temperature;BME280_humidity;BME280_pressure;Samples;Min_cycle;Max_cycle;Signal;HPM_P1;HPM_P2
2022/06/19 00:01:29;;;;;;;11.73;6.57;;;29.50;47.70;;;;;;5037528;28;21108;-69
2022/06/19 00:03:56;;;;;;;15.80;5.40;;;29.50;47.90;;;;;;5037144;28;20417;-70
2022/06/19 00:06:22;;;;;;;12.33;5.80;;;29.50;47.70;;;;;;5034475;28;20462;-69
2022/06/19 00:08:49;;;;;;;7.67;5.33;;;29.40;47.70;;;;;;5033362;28;20439;-68
2022/06/19 00:11:18;;;;;;;12.07;6.30;;;29.40;47.70;;;;;;5043781;28;20440;-68
2022/06/19 00:13:44;;;;;;;17.40;5.23;;;29.40;47.60;;;;;;5034615;28;20435;-68
2022/06/19 00:16:09;;;;;;;16.90;5.23;;;29.40;47.40;;;;;;5034303;28;20533;-68
2022/06/19 00:18:38;;;;;;;15.90;5.80;;;29.30;47.90;;;;;;5036739;28;20547;-69
2022/06/19 00:21:04;;;;;;;14.50;5.60;;;29.30;48.00;;;;;;5036429;28;20188;-70
2022/06/19 00:23:30;;;;;;;12.73;6.43;;;29.20;48.70;;;;;;5035292;28;20470;-68
2022/06/19 00:25:56;;;;;;;17.17;6.10;;;29.20;48.10;;;;;;5034509;28;20410;-69
2022/06/19 00:28:21;;;;;;;14.53;5.83;;;29.20;47.90;;;;;;5030435;28;20192;-69
2022/06/19 00:30:47;;;;;;;16.20;5.57;;;29.20;48.20;;;;;;5034324;28;20206;-69
2022/06/19 00:33:12;;;;;;;14.23;5.73;;;29.20;48.10;;;;;;5033518;28;20204;-69
2022/06/19 00:35:38;;;;;;;11.77;5.47;;;29.10;48.30;;;;;;5035111;28;20677;-70
2022/06/19 00:38:04;;;;;;;14.10;6.50;;;29.10;48.20;;;;;;5036622;28;20917;-70
2022/06/19 00:40:31;;;;;;;15.07;5.43;;;29.10;48.20;;;;;;5034052;28;20280;-70
2022/06/19 00:42:57;;;;;;;12.93;6.27;;;29.10;48.00;;;;;;5037528;28;20204;-69
2022/06/19 00:45:49;;;;;;;8.67;5.43;;;29.00;48.50;;;;;;5031891;28;20434;-69
2022/06/19 00:48:30;;;;;;;11.10;5.67;;;29.00;48.60;;;;;;5032624;28;20181;-69
2022/06/19 00:50:59;;;;;;;12.67;6.27;;;28.90;48.60;;;;;;5034859;28;20413;-69
2022/06/19 00:53:35;;;;;;;10.03;5.00;;;28.90;48.80;;;;;;5034233;28;20466;-70
2022/06/19 00:56:01;;;;;;;15.67;6.17;;;28.90;49.00;;;;;;5028989;28;20434;-69
2022/06/19 00:58:34;;;;;;;14.73;5.23;;;28.90;49.10;;;;;;5032855;28;20422;-70
2022/06/19 01:01:11;;;;;;;8.30;4.80;;;28.90;49.00;;;;;;5032867;28;20602;-70
2022/06/19 01:04:06;;;;;;;19.33;6.27;;;28.80;49.00;;;;;;5034108;28;20500;-70
2022/06/19 01:06:32;;;;;;;14.77;5.60;;;28.80;49.30;;;;;;5033490;28;20766;-70
2022/06/19 01:08:59;;;;;;;15.50;5.40;;;28.70;49.30;;;;;;5033874;28;20475;-69
2022/06/19 01:11:28;;;;;;;10.30;5.77;;;28.70;49.70;;;;;;5031771;28;20459;-69
2022/06/19 01:13:54;;;;;;;11.43;4.73;;;28.70;49.60;;;;;;5035777;28;20774;-69
2022/06/19 01:16:20;;;;;;;10.73;5.73;;;28.70;49.60;;;;;;5036453;28;20434;-69
2022/06/19 01:18:46;;;;;;;15.50;7.40;;;28.60;49.50;;;;;;5031145;28;20853;-69
2022/06/19 01:21:47;;;;;;;12.60;5.80;;;28.60;49.80;;;;;;5035828;28;20184;-70
2022/06/19 01:24:15;;;;;;;9.70;6.27;;;28.50;50.10;;;;;;4960794;28;20248;-68
2022/06/19 01:26:45;;;;;;;21.00;11.27;;;28.50;49.80;;;;;;5030311;28;20833;-68
2022/06/19 01:29:13;;;;;;;19.20;6.33;;;28.50;49.90;;;;;;5034690;28;20497;-68
2022/06/19 01:31:48;;;;;;;18.53;5.77;;;28.50;49.80;;;;;;5030025;28;21593;-68
2022/06/19 01:34:31;;;;;;;10.80;5.77;;;28.40;50.30;;;;;;5032835;28;20396;-68
2022/06/19 01:37:26;;;;;;;17.00;6.23;;;28.30;50.80;;;;;;5032499;28;22041;-70
2022/06/19 01:40:12;;;;;;;15.40;5.50;;;28.30;50.80;;;;;;5028479;28;20453;-68
2022/06/19 01:42:38;;;;;;;12.07;5.97;;;28.30;51.00;;;;;;5037446;28;20458;-69
2022/06/19 01:45:05;;;;;;;12.13;5.63;;;28.20;50.70;;;;;;5036456;28;20948;-69
2022/06/19 01:47:31;;;;;;;14.20;6.00;;;28.30;50.10;;;;;;5031569;28;20470;-68
2022/06/19 01:49:58;;;;;;;13.40;6.73;;;28.30;50.10;;;;;;5032820;28;20405;-69
2022/06/19 01:52:26;;;;;;;16.67;6.57;;;28.20;50.30;;;;;;5034168;28;20418;-68
2022/06/19 01:55:15;;;;;;;13.87;6.27;;;28.20;50.50;;;;;;5032876;28;20426;-68
2022/06/19 01:57:44;;;;;;;13.20;5.70;;;28.10;50.80;;;;;;5029924;28;20439;-69
2022/06/19 02:00:15;;;;;;;12.80;4.83;;;28.00;51.40;;;;;;5030232;28;20533;-69
2022/06/19 02:02:44;;;;;;;12.17;5.60;;;27.90;51.70;;;;;;5032679;28;20462;-68
2022/06/19 02:05:09;;;;;;;16.10;5.77;;;27.90;51.80;;;;;;5032076;28;20477;-69
2022/06/19 02:07:35;;;;;;;11.90;5.10;;;27.90;52.10;;;;;;5031205;28;20466;-68
2022/06/19 02:10:02;;;;;;;13.70;5.37;;;27.90;52.40;;;;;;5036535;28;20176;-68
2022/06/19 02:12:31;;;;;;;9.50;5.97;;;27.80;52.30;;;;;;5032777;28;20469;-68
2022/06/19 02:14:56;;;;;;;10.50;5.40;;;27.80;52.50;;;;;;5035625;28;20967;-68
2022/06/19 02:17:36;;;;;;;8.17;5.50;;;27.80;52.50;;;;;;5031900;28;20498;-67
2022/06/19 02:20:03;;;;;;;11.83;6.00;;;27.70;52.80;;;;;;5031730;28;20181;-67
2022/06/19 02:22:29;;;;;;;11.43;6.67;;;27.70;52.70;;;;;;5031247;28;20844;-69
2022/06/19 02:24:55;;;;;;;15.40;6.83;;;27.70;52.80;;;;;;5035833;28;20439;-68
2022/06/19 02:27:20;;;;;;;17.80;6.73;;;27.70;52.90;;;;;;5032924;28;20215;-68
2022/06/19 02:29:46;;;;;;;13.37;7.93;;;27.50;53.00;;;;;;5029672;28;20185;-68
2022/06/19 02:32:27;;;;;;;12.43;5.57;;;27.50;53.40;;;;;;5029550;28;20204;-69
2022/06/19 02:34:53;;;;;;;16.33;5.70;;;27.40;53.20;;;;;;5032107;28;20514;-69
2022/06/19 02:37:24;;;;;;;12.90;5.80;;;27.20;53.50;;;;;;5035096;28;20445;-69
2022/06/19 02:39:58;;;;;;;11.70;6.43;;;27.10;54.00;;;;;;5032944;28;20812;-69
2022/06/19 02:42:34;;;;;;;7.53;5.23;;;27.10;54.30;;;;;;5031325;28;20498;-69
2022/06/19 02:45:04;;;;;;;13.67;5.53;;;27.00;54.70;;;;;;5041072;28;21200;-69
2022/06/19 02:47:33;;;;;;;11.90;5.43;;;26.90;54.20;;;;;;5030569;28;20470;-69
2022/06/19 02:49:59;;;;;;;14.03;6.10;;;26.90;54.40;;;;;;5032728;28;20439;-69
2022/06/19 02:52:25;;;;;;;13.00;5.67;;;26.90;54.40;;;;;;5029570;28;21041;-69
2022/06/19 02:54:50;;;;;;;10.63;5.80;;;26.80;54.80;;;;;;5030956;28;20184;-69
2022/06/19 02:57:17;;;;;;;11.30;5.33;;;26.70;54.50;;;;;;5034050;28;20184;-69
2022/06/19 02:59:43;;;;;;;10.33;5.47;;;26.80;54.50;;;;;;5033828;28;20736;-69
2022/06/19 03:02:12;;;;;;;14.20;5.60;;;26.60;54.50;;;;;;5031972;28;20537;-68
2022/06/19 03:05:00;;;;;;;10.47;5.80;;;26.60;54.90;;;;;;5031939;28;20481;-68
2022/06/19 03:07:29;;;;;;;9.50;5.70;;;26.70;54.80;;;;;;5030465;28;20466;-68
2022/06/19 03:09:55;;;;;;;13.20;5.30;;;26.50;54.30;;;;;;5037141;28;20439;-68
2022/06/19 03:12:22;;;;;;;13.50;6.20;;;26.60;54.60;;;;;;5035101;28;20493;-69
2022/06/19 03:14:48;;;;;;;11.50;5.80;;;26.60;54.50;;;;;;5034583;28;20961;-68
2022/06/19 03:17:16;;;;;;;9.93;5.63;;;26.60;54.80;;;;;;5037155;28;20818;-68
2022/06/19 03:19:42;;;;;;;14.27;6.40;;;26.60;55.00;;;;;;5038076;28;20454;-68
2022/06/19 03:22:09;;;;;;;14.87;5.87;;;26.60;55.00;;;;;;5038711;28;20478;-69
2022/06/19 03:24:35;;;;;;;13.57;5.73;;;26.60;55.20;;;;;;5036088;28;20477;-68
2022/06/19 03:27:00;;;;;;;13.37;5.73;;;26.60;55.20;;;;;;5037141;28;20463;-70
2022/06/19 03:29:26;;;;;;;10.20;5.60;;;26.60;55.00;;;;;;5037226;28;22498;-68
2022/06/19 03:31:51;;;;;;;9.60;5.60;;;26.60;55.00;;;;;;5035237;28;20213;-68
2022/06/19 03:34:17;;;;;;;17.60;5.60;;;26.60;54.90;;;;;;5041948;28;20282;-68
2022/06/19 03:36:43;;;;;;;13.57;5.40;;;26.60;55.00;;;;;;5035545;28;20243;-67
2022/06/19 03:39:09;;;;;;;8.63;5.00;;;26.60;55.00;;;;;;5038373;28;20241;-69
2022/06/19 03:41:35;;;;;;;15.93;5.60;;;26.60;55.10;;;;;;5040191;28;20275;-67
2022/06/19 03:44:01;;;;;;;16.90;6.20;;;26.60;55.00;;;;;;5035344;28;20474;-68
2022/06/19 03:46:26;;;;;;;10.93;6.30;;;26.60;55.20;;;;;;5035197;28;20506;-68
2022/06/19 03:48:52;;;;;;;14.87;5.97;;;26.60;55.40;;;;;;5035608;28;20189;-68
2022/06/19 03:51:22;;;;;;;12.43;5.73;;;26.60;55.30;;;;;;5036473;28;20187;-70
2022/06/19 03:53:52;;;;;;;16.33;6.23;;;26.60;55.30;;;;;;5040022;28;20196;-68
2022/06/19 03:56:24;;;;;;;13.23;5.53;;;26.60;55.40;;;;;;5036618;28;20985;-68
2022/06/19 03:58:51;;;;;;;14.43;5.57;;;26.60;55.40;;;;;;5033575;28;20513;-68
2022/06/19 04:01:37;;;;;;;7.30;5.27;;;26.60;55.30;;;;;;5032975;28;20541;-68
2022/06/19 04:04:06;;;;;;;7.00;4.90;;;26.70;55.70;;;;;;5037314;28;20467;-68
2022/06/19 04:06:35;;;;;;;11.03;6.00;;;26.70;55.60;;;;;;5040490;28;20866;-68
2022/06/19 04:09:02;;;;;;;9.37;5.30;;;26.70;55.40;;;;;;5036180;28;20457;-68
2022/06/19 04:11:30;;;;;;;11.60;5.43;;;26.70;55.40;;;;;;5031174;28;20451;-68
2022/06/19 04:13:56;;;;;;;15.63;6.20;;;26.70;55.50;;;;;;5031295;28;20446;-68
2022/06/19 04:16:25;;;;;;;15.77;6.27;;;26.60;55.50;;;;;;5036060;28;20533;-69
2022/06/19 04:18:52;;;;;;;12.67;5.43;;;26.60;55.50;;;;;;5036152;28;20434;-67
2022/06/19 04:21:22;;;;;;;12.47;5.83;;;26.70;55.70;;;;;;5033249;28;20442;-67
2022/06/19 04:23:50;;;;;;;9.93;4.90;;;26.60;55.80;;;;;;5039391;28;20479;-67
2022/06/19 04:26:19;;;;;;;15.13;6.47;;;26.70;55.50;;;;;;5034224;28;20516;-68
2022/06/19 04:28:44;;;;;;;9.13;4.57;;;26.60;56.40;;;;;;5032953;28;20450;-68
2022/06/19 04:31:10;;;;;;;16.97;5.00;;;26.50;57.00;;;;;;5035029;28;20500;-68
2022/06/19 04:33:39;;;;;;;15.17;6.23;;;26.50;56.80;;;;;;5034989;28;20208;-68
2022/06/19 04:36:07;;;;;;;12.40;6.20;;;26.60;55.90;;;;;;5035615;28;20184;-68
2022/06/19 04:38:33;;;;;;;12.20;6.30;;;26.60;55.70;;;;;;5034383;28;20469;-69
2022/06/19 04:40:58;;;;;;;10.10;5.50;;;26.70;55.70;;;;;;5035427;28;20440;-67
2022/06/19 04:43:24;;;;;;;11.40;6.10;;;26.80;55.20;;;;;;5031773;28;20994;-67
2022/06/19 04:45:50;;;;;;;8.80;5.27;;;26.70;55.20;;;;;;5037230;28;20196;-67
2022/06/19 04:48:15;;;;;;;11.37;5.77;;;26.60;55.30;;;;;;5033236;28;20177;-67
2022/06/19 04:50:41;;;;;;;13.90;5.67;;;26.50;55.70;;;;;;5031888;28;20183;-67
2022/06/19 04:53:07;;;;;;;19.70;9.30;;;26.60;55.70;;;;;;5032585;28;20295;-67
2022/06/19 04:55:33;;;;;;;13.37;6.20;;;26.60;55.90;;;;;;5033456;28;20184;-69
2022/06/19 04:58:03;;;;;;;12.23;6.80;;;26.50;56.30;;;;;;5038476;28;20265;-69
2022/06/19 05:00:29;;;;;;;16.73;5.87;;;26.50;56.60;;;;;;5036062;28;20442;-69
2022/06/19 05:02:55;;;;;;;14.13;6.50;;;26.40;56.70;;;;;;5034240;28;20454;-67
2022/06/19 05:05:23;;;;;;;17.20;5.73;;;26.30;57.10;;;;;;5034912;28;20438;-66
2022/06/19 05:07:49;;;;;;;12.53;6.30;;;26.40;56.60;;;;;;5035284;28;20462;-67
2022/06/19 05:10:15;;;;;;;14.30;5.30;;;26.50;56.90;;;;;;5033438;28;20813;-67
2022/06/19 05:12:41;;;;;;;15.23;5.90;;;26.50;56.70;;;;;;5034436;28;20879;-67
2022/06/19 05:15:09;;;;;;;12.70;5.70;;;26.40;57.10;;;;;;5033142;28;20525;-67
2022/06/19 05:17:35;;;;;;;10.73;5.90;;;26.50;57.50;;;;;;5030323;28;20444;-67
2022/06/19 05:20:02;;;;;;;17.00;5.60;;;26.50;57.30;;;;;;5035185;28;20435;-66
2022/06/19 05:22:28;;;;;;;13.27;7.30;;;26.30;57.70;;;;;;5032327;28;20207;-69
2022/06/19 05:24:54;;;;;;;9.87;5.37;;;26.30;57.60;;;;;;5035085;28;20442;-68
2022/06/19 05:27:19;;;;;;;13.23;4.80;;;26.50;57.10;;;;;;5035481;28;20222;-67
2022/06/19 05:29:45;;;;;;;14.73;5.13;;;26.50;57.20;;;;;;5035684;28;20609;-70
2022/06/19 05:32:10;;;;;;;9.37;5.50;;;26.40;57.80;;;;;;5043188;28;20237;-67
2022/06/19 05:34:37;;;;;;;12.50;5.93;;;26.40;57.90;;;;;;5033297;28;20657;-67
2022/06/19 05:37:03;;;;;;;10.30;5.50;;;26.50;58.30;;;;;;5035084;28;20187;-67
2022/06/19 05:39:29;;;;;;;13.20;5.60;;;26.60;58.20;;;;;;5030609;28;20496;-68
2022/06/19 05:41:58;;;;;;;9.50;6.30;;;26.70;57.10;;;;;;5031293;28;20893;-67
2022/06/19 05:44:25;;;;;;;14.03;7.47;;;26.70;57.20;;;;;;5030933;28;20562;-68
2022/06/19 05:46:51;;;;;;;12.50;5.77;;;26.80;56.80;;;;;;5031010;28;20493;-68
2022/06/19 05:49:17;;;;;;;15.80;7.17;;;26.80;56.50;;;;;;5030253;28;20415;-68
2022/06/19 05:51:43;;;;;;;16.60;6.33;;;26.90;56.40;;;;;;5032988;28;20428;-68
2022/06/19 05:54:09;;;;;;;16.80;5.60;;;27.00;56.20;;;;;;5028731;28;20183;-68
2022/06/19 05:56:35;;;;;;;13.97;5.77;;;27.00;56.50;;;;;;5028724;28;20447;-68
2022/06/19 05:59:01;;;;;;;14.50;5.77;;;27.10;56.40;;;;;;5037529;28;20516;-68
2022/06/19 06:01:30;;;;;;;15.13;5.70;;;27.20;56.60;;;;;;5034607;28;20177;-68
2022/06/19 06:03:57;;;;;;;12.70;6.47;;;27.30;56.30;;;;;;5031318;28;20450;-68
2022/06/19 06:06:25;;;;;;;8.53;5.33;;;27.40;56.20;;;;;;5031244;28;20467;-68
2022/06/19 06:08:51;;;;;;;11.67;6.33;;;27.50;56.40;;;;;;5030510;28;20820;-68
2022/06/19 06:11:17;;;;;;;15.37;6.43;;;27.50;56.10;;;;;;5030655;28;20477;-68
2022/06/19 06:13:43;;;;;;;13.00;5.90;;;27.40;56.20;;;;;;5037905;28;20543;-68
2022/06/19 06:16:13;;;;;;;16.83;5.80;;;27.60;56.30;;;;;;5033423;28;20191;-68
2022/06/19 06:18:39;;;;;;;14.80;5.67;;;27.50;56.30;;;;;;5033310;28;20184;-68
2022/06/19 06:21:11;;;;;;;12.70;6.07;;;27.60;56.00;;;;;;5033575;28;20820;-68
2022/06/19 06:23:36;;;;;;;9.00;5.23;;;27.60;56.40;;;;;;5036205;28;20577;-67
2022/06/19 06:26:08;;;;;;;18.30;6.30;;;27.70;56.60;;;;;;5032386;28;20423;-68
2022/06/19 06:28:35;;;;;;;14.13;5.53;;;27.80;56.70;;;;;;5030101;28;20183;-68
2022/06/19 06:31:01;;;;;;;12.33;5.40;;;27.80;56.60;;;;;;5030612;28;20434;-68
2022/06/19 06:33:27;;;;;;;11.80;4.80;;;27.80;56.60;;;;;;5033944;28;20445;-69
2022/06/19 06:35:53;;;;;;;14.40;6.27;;;27.90;56.60;;;;;;5031293;28;20179;-68
2022/06/19 06:38:19;;;;;;;15.80;5.93;;;28.00;57.00;;;;;;5034071;28;20204;-68
2022/06/19 06:40:44;;;;;;;13.80;5.90;;;28.10;56.40;;;;;;5036596;28;20462;-68
2022/06/19 06:43:10;;;;;;;12.80;5.50;;;28.20;56.40;;;;;;5030899;28;20215;-68
2022/06/19 06:45:36;;;;;;;17.80;7.53;;;28.30;55.90;;;;;;5031100;28;21078;-68
2022/06/19 06:48:02;;;;;;;13.93;6.20;;;28.40;55.40;;;;;;5030959;28;20664;-69
2022/06/19 06:50:28;;;;;;;11.57;5.70;;;28.50;54.70;;;;;;5033875;28;20975;-70
2022/06/19 06:52:54;;;;;;;19.37;6.80;;;28.60;54.30;;;;;;5030801;28;20199;-68
2022/06/19 06:55:19;;;;;;;14.87;6.10;;;28.70;54.10;;;;;;5032529;28;20180;-68
2022/06/19 06:57:45;;;;;;;14.30;6.80;;;28.80;53.60;;;;;;5036433;28;20708;-68
2022/06/19 07:00:16;;;;;;;10.90;6.13;;;28.90;53.50;;;;;;5029551;28;20722;-68
2022/06/19 07:02:42;;;;;;;15.60;6.27;;;29.00;53.40;;;;;;5030813;28;20203;-68
2022/06/19 07:05:08;;;;;;;9.47;6.20;;;29.00;53.40;;;;;;5029335;28;21010;-68
2022/06/19 07:07:34;;;;;;;13.53;6.20;;;29.10;53.50;;;;;;5030478;28;20466;-69
2022/06/19 07:09:59;;;;;;;12.43;6.80;;;29.20;53.10;;;;;;5032660;28;20441;-68
2022/06/19 07:12:25;;;;;;;16.23;7.00;;;29.20;53.20;;;;;;5037213;28;20200;-69
2022/06/19 07:14:51;;;;;;;11.43;7.07;;;29.30;53.40;;;;;;5031141;28;20176;-68
2022/06/19 07:17:16;;;;;;;17.80;8.20;;;29.40;53.40;;;;;;5032206;28;20240;-68
2022/06/19 07:19:42;;;;;;;17.70;8.00;;;29.50;53.10;;;;;;5031797;28;20247;-68
2022/06/19 07:22:12;;;;;;;12.80;6.40;;;29.50;53.00;;;;;;5031439;28;20207;-68
2022/06/19 07:24:38;;;;;;;11.80;7.00;;;29.60;53.50;;;;;;5036084;28;20199;-68
2022/06/19 07:27:04;;;;;;;10.03;6.27;;;29.70;53.10;;;;;;5030030;28;20453;-68
2022/06/19 07:29:30;;;;;;;10.87;7.03;;;29.80;53.00;;;;;;5030999;28;20673;-68
2022/06/19 07:31:55;;;;;;;14.73;7.50;;;29.90;53.10;;;;;;5030578;28;20416;-68
2022/06/19 07:34:21;;;;;;;9.67;6.17;;;29.90;53.20;;;;;;5034808;28;20184;-67
2022/06/19 07:36:46;;;;;;;14.53;7.03;;;30.00;53.30;;;;;;5030688;28;20212;-67
2022/06/19 07:39:12;;;;;;;12.77;7.70;;;30.00;53.30;;;;;;5036817;28;20218;-69
2022/06/19 07:41:37;;;;;;;12.63;7.43;;;30.10;53.00;;;;;;5029033;28;20207;-69
2022/06/19 07:44:03;;;;;;;10.57;7.10;;;30.20;53.20;;;;;;5032558;28;20199;-70
2022/06/19 07:46:29;;;;;;;11.40;7.60;;;30.30;52.50;;;;;;5032677;28;20223;-69
2022/06/19 07:51:38;;;;;;;16.10;8.80;;;30.50;51.60;;;;;;5031199;28;20215;-70
2022/06/19 07:54:04;;;;;;;11.07;8.90;;;30.60;51.60;;;;;;5028787;28;20401;-70
2022/06/19 07:56:30;;;;;;;16.03;8.93;;;30.70;51.10;;;;;;5036569;28;20253;-70
2022/06/19 07:58:55;;;;;;;9.90;8.60;;;30.90;51.30;;;;;;5033627;28;20235;-69
2022/06/19 08:01:21;;;;;;;15.93;8.13;;;30.90;50.90;;;;;;5035460;28;20259;-69
2022/06/19 08:03:47;;;;;;;14.33;8.40;;;31.00;50.10;;;;;;5035740;28;20184;-69
2022/06/19 08:06:14;;;;;;;11.30;9.00;;;31.00;50.00;;;;;;5035665;28;20238;-69
2022/06/19 08:08:41;;;;;;;13.50;8.83;;;31.10;50.10;;;;;;5035764;28;20250;-68
2022/06/19 08:11:06;;;;;;;11.17;8.20;;;31.10;49.90;;;;;;5033634;28;20450;-68
2022/06/19 08:13:33;;;;;;;11.00;8.77;;;31.20;49.80;;;;;;5038200;28;20445;-69
2022/06/19 08:16:04;;;;;;;11.63;8.77;;;31.30;49.80;;;;;;5032977;28;20183;-69
2022/06/19 08:18:32;;;;;;;15.30;7.60;;;31.40;49.70;;;;;;5037480;28;20409;-68
2022/06/19 08:20:58;;;;;;;13.70;8.40;;;31.40;48.80;;;;;;5035470;28;20528;-68
2022/06/19 08:23:23;;;;;;;11.03;8.20;;;31.40;49.40;;;;;;5034939;28;20974;-68
2022/06/19 08:25:50;;;;;;;14.10;8.13;;;31.40;49.00;;;;;;5034984;28;20192;-68
2022/06/19 08:28:20;;;;;;;9.10;7.03;;;31.50;49.00;;;;;;5035317;28;20212;-69
2022/06/19 08:30:46;;;;;;;8.47;7.67;;;31.50;48.70;;;;;;5035976;28;20414;-69
2022/06/19 08:33:12;;;;;;;8.57;7.70;;;31.60;47.70;;;;;;5034628;28;20491;-69
2022/06/19 08:35:44;;;;;;;8.17;7.23;;;31.60;47.80;;;;;;5036922;28;20188;-69
2022/06/19 08:38:15;;;;;;;11.90;8.63;;;31.70;47.10;;;;;;5035074;28;20183;-69
2022/06/19 08:40:59;;;;;;;12.80;7.97;;;31.60;46.50;;;;;;5034216;28;20855;-68
2022/06/19 08:43:42;;;;;;;7.87;7.17;;;31.60;47.10;;;;;;5034299;28;20653;-68
2022/06/19 08:46:32;;;;;;;14.00;8.80;;;31.70;46.70;;;;;;5033703;28;20486;-68
2022/06/19 08:49:20;;;;;;;8.33;6.70;;;31.70;47.10;;;;;;5033245;28;20888;-68
2022/06/19 08:51:54;;;;;;;9.63;7.60;;;31.80;46.70;;;;;;5036913;28;20798;-69
2022/06/19 08:54:43;;;;;;;10.73;7.60;;;31.80;47.20;;;;;;5035682;28;20401;-68
2022/06/19 08:57:29;;;;;;;10.50;7.00;;;31.90;46.60;;;;;;5033502;28;20461;-68
2022/06/19 09:00:26;;;;;;;10.30;7.17;;;31.90;45.80;;;;;;5033459;28;20468;-69
2022/06/19 09:03:02;;;;;;;12.10;7.13;;;32.10;46.00;;;;;;5033741;28;20441;-68
2022/06/19 09:05:47;;;;;;;7.47;6.87;;;32.10;45.30;;;;;;5035680;28;20485;-69
2022/06/19 09:08:41;;;;;;;9.57;7.03;;;32.10;44.70;;;;;;5033402;28;20462;-68
2022/06/19 09:11:34;;;;;;;7.10;6.50;;;32.10;45.00;;;;;;5034910;28;20904;-68
2022/06/19 09:14:36;;;;;;;14.10;7.83;;;32.10;44.90;;;;;;5039068;28;20436;-70
2022/06/19 09:17:15;;;;;;;9.10;6.77;;;32.10;45.00;;;;;;5028403;28;20450;-69
2022/06/19 09:20:07;;;;;;;9.20;6.83;;;32.20;45.10;;;;;;5032534;28;20431;-68
2022/06/19 09:22:52;;;;;;;8.13;7.33;;;32.20;45.40;;;;;;5029730;28;21009;-68
2022/06/19 09:25:36;;;;;;;7.27;6.60;;;32.20;44.10;;;;;;5029587;28;20414;-68
2022/06/19 09:28:34;;;;;;;16.30;6.90;;;32.30;44.80;;;;;;5036433;28;20464;-68
2022/06/19 09:31:09;;;;;;;9.50;6.23;;;32.30;44.40;;;;;;5019462;28;20841;-69
2022/06/19 09:34:02;;;;;;;9.23;6.90;;;32.40;44.10;;;;;;5033559;28;21015;-68
2022/06/19 09:36:48;;;;;;;9.80;6.90;;;32.40;44.20;;;;;;5033622;28;21267;-69
2022/06/19 09:39:14;;;;;;;13.13;6.67;;;32.50;44.20;;;;;;5031120;28;20438;-69
2022/06/19 09:41:46;;;;;;;9.63;6.90;;;32.60;44.10;;;;;;5035627;28;20480;-69
2022/06/19 09:44:32;;;;;;;14.33;7.70;;;32.60;43.70;;;;;;5033461;28;20190;-69
2022/06/19 09:47:10;;;;;;;8.80;7.40;;;32.70;44.30;;;;;;5036399;28;20462;-69
2022/06/19 09:50:07;;;;;;;7.73;6.87;;;32.70;44.80;;;;;;5035451;28;20422;-69
2022/06/19 09:52:43;;;;;;;10.97;7.13;;;32.70;43.80;;;;;;5026579;28;20469;-69
2022/06/19 09:55:16;;;;;;;10.53;7.50;;;32.70;44.30;;;;;;5031588;28;20412;-69
2022/06/19 09:57:49;;;;;;;9.90;6.70;;;32.80;44.30;;;;;;5035324;28;20827;-69
2022/06/19 10:00:23;;;;;;;8.63;6.60;;;32.90;44.40;;;;;;5033618;28;20547;-69
2022/06/19 10:03:01;;;;;;;9.67;7.17;;;32.90;44.70;;;;;;5027833;28;20551;-68
2022/06/19 10:05:54;;;;;;;8.67;7.60;;;33.10;44.80;;;;;;5031568;28;20412;-68
2022/06/19 10:08:29;;;;;;;7.50;6.70;;;33.20;44.70;;;;;;5028984;28;21116;-68
2022/06/19 10:11:17;;;;;;;8.73;7.23;;;33.10;44.40;;;;;;5030142;28;20492;-69
2022/06/19 10:14:00;;;;;;;7.57;6.87;;;33.10;44.10;;;;;;5032083;28;21064;-68
2022/06/19 10:16:48;;;;;;;8.40;7.60;;;33.20;44.20;;;;;;5036878;22;20495;-65
2022/06/19 10:19:23;;;;;;;8.40;6.50;;;33.20;44.20;;;;;;5015228;28;20501;-66
2022/06/19 10:22:13;;;;;;;12.37;7.50;;;33.30;44.10;;;;;;5008554;28;20467;-65
2022/06/19 10:25:06;;;;;;;12.40;7.17;;;33.40;44.30;;;;;;5010718;28;20448;-64
2022/06/19 10:27:56;;;;;;;8.30;6.97;;;33.40;44.10;;;;;;5010256;28;20461;-64
2022/06/19 10:30:53;;;;;;;11.03;6.80;;;33.30;44.70;;;;;;5012024;28;20428;-65
2022/06/19 10:33:56;;;;;;;8.03;7.23;;;33.40;44.70;;;;;;5013019;28;21010;-62
2022/06/19 10:36:37;;;;;;;7.10;6.40;;;33.50;44.90;;;;;;5009511;28;20430;-63
2022/06/19 10:39:23;;;;;;;8.73;6.93;;;33.50;44.70;;;;;;5013088;28;20428;-63
2022/06/19 10:42:21;;;;;;;11.60;6.80;;;33.50;44.50;;;;;;5011776;28;20520;-64
2022/06/19 10:45:02;;;;;;;10.43;6.80;;;33.40;44.30;;;;;;5009074;28;20411;-64
2022/06/19 10:47:58;;;;;;;8.37;6.80;;;33.50;44.40;;;;;;5010531;28;20471;-63
2022/06/19 10:50:41;;;;;;;7.77;6.90;;;33.60;44.50;;;;;;5010456;28;20931;-63
2022/06/19 10:53:32;;;;;;;10.90;6.80;;;33.80;44.50;;;;;;5008826;28;20769;-64
2022/06/19 10:56:15;;;;;;;12.60;7.17;;;33.90;44.00;;;;;;4988024;28;21127;-64
2022/06/19 10:58:41;;;;;;;10.10;7.50;;;33.90;44.00;;;;;;4997522;28;20435;-62
2022/06/19 11:01:09;;;;;;;9.10;6.50;;;33.70;43.90;;;;;;5006521;28;20435;-63
2022/06/19 11:06:39;;;;;;;8.13;7.23;;;33.80;44.20;;;;;;5010195;28;20476;-63
2022/06/19 11:09:15;;;;;;;7.53;6.70;;;33.70;44.40;;;;;;5010853;28;20551;-64
2022/06/19 11:11:44;;;;;;;9.23;6.90;;;33.90;44.10;;;;;;4993458;28;20577;-64
2022/06/19 11:14:28;;;;;;;8.40;6.63;;;34.00;44.00;;;;;;5010293;28;20439;-63
2022/06/19 11:16:56;;;;;;;7.27;6.23;;;34.00;43.80;;;;;;5011209;28;20831;-65
2022/06/19 11:19:39;;;;;;;12.10;6.97;;;33.90;44.10;;;;;;5008291;28;20431;-63
2022/06/19 11:22:26;;;;;;;9.60;6.67;;;34.00;44.10;;;;;;5013459;28;20432;-64
2022/06/19 11:24:55;;;;;;;14.33;7.03;;;34.00;44.00;;;;;;5001685;28;20449;-64
2022/06/19 11:27:25;;;;;;;9.90;7.60;;;34.20;43.90;;;;;;5008485;28;20478;-64
2022/06/19 11:29:54;;;;;;;7.07;6.40;;;34.30;44.40;;;;;;5012622;28;20431;-64
2022/06/19 11:32:26;;;;;;;13.20;7.47;;;34.40;43.50;;;;;;5013062;28;20439;-65
2022/06/19 11:35:08;;;;;;;13.80;7.07;;;34.30;43.70;;;;;;5013074;28;20414;-64
2022/06/19 11:37:44;;;;;;;9.50;7.03;;;34.40;43.70;;;;;;5014181;28;20459;-65
2022/06/19 11:40:18;;;;;;;8.63;7.57;;;34.30;43.00;;;;;;5015345;28;20471;-64
2022/06/19 11:42:50;;;;;;;8.53;7.27;;;34.50;43.40;;;;;;5017464;28;20446;-64
2022/06/19 11:45:15;;;;;;;9.90;6.53;;;34.60;43.20;;;;;;5010704;28;20434;-64
2022/06/19 11:47:47;;;;;;;10.80;7.17;;;34.80;42.60;;;;;;5013015;28;20511;-64
2022/06/19 11:50:45;;;;;;;9.57;7.07;;;35.00;42.70;;;;;;5015150;28;20665;-63
2022/06/19 11:53:19;;;;;;;13.63;6.20;;;35.20;42.60;;;;;;4951876;28;20436;-63
2022/06/19 11:56:12;;;;;;;14.13;7.00;;;35.30;42.50;;;;;;5016367;28;20444;-63
2022/06/19 11:58:44;;;;;;;14.20;8.10;;;35.50;41.90;;;;;;5010986;28;20472;-63
2022/06/19 12:01:16;;;;;;;8.10;7.30;;;35.60;41.60;;;;;;5015209;28;20431;-63
2022/06/19 12:03:47;;;;;;;13.73;6.90;;;35.90;41.20;;;;;;5015490;28;20467;-63
2022/06/19 12:06:15;;;;;;;9.63;6.90;;;36.50;40.80;;;;;;5015341;28;20439;-64
2022/06/19 12:08:57;;;;;;;7.77;6.90;;;37.20;40.00;;;;;;5015425;28;20935;-64
2022/06/19 12:11:48;;;;;;;7.00;6.30;;;39.60;38.70;;;;;;5013765;28;20446;-64
2022/06/19 12:14:28;;;;;;;20.93;6.70;;;40.80;37.00;;;;;;5009436;28;20440;-64
2022/06/19 12:17:16;;;;;;;8.23;7.43;;;41.50;35.60;;;;;;4996959;28;20468;-65
2022/06/19 12:20:00;;;;;;;7.27;5.77;;;41.80;34.60;;;;;;5016216;28;20449;-64
2022/06/19 12:22:32;;;;;;;6.90;6.30;;;42.50;34.20;;;;;;4995616;28;20466;-64
2022/06/19 12:25:11;;;;;;;6.70;6.13;;;41.80;33.00;;;;;;4995360;28;20428;-64
2022/06/19 12:27:56;;;;;;;6.40;5.90;;;42.80;33.60;;;;;;5013258;28;20497;-64
2022/06/19 12:30:43;;;;;;;6.57;6.00;;;42.30;33.40;;;;;;5012428;28;20427;-64
2022/06/19 12:33:22;;;;;;;11.50;6.33;;;43.30;33.30;;;;;;5010299;28;20454;-64
2022/06/19 12:35:49;;;;;;;8.30;6.47;;;43.30;33.30;;;;;;5011586;28;20430;-64
2022/06/19 12:38:18;;;;;;;7.43;5.80;;;42.80;33.00;;;;;;5011908;28;20831;-64
2022/06/19 12:41:04;;;;;;;9.73;7.03;;;42.50;33.60;;;;;;5010276;28;20454;-63
2022/06/19 12:43:45;;;;;;;10.10;6.10;;;42.50;33.70;;;;;;5009745;28;20452;-63
2022/06/19 12:46:37;;;;;;;10.80;5.90;;;42.10;33.50;;;;;;5009177;28;20995;-63
2022/06/19 12:49:44;;;;;;;7.37;6.60;;;42.30;34.10;;;;;;5009008;28;20466;-63
2022/06/19 12:52:33;;;;;;;8.70;6.93;;;43.30;33.10;;;;;;5008105;28;20529;-64
2022/06/19 12:55:26;;;;;;;10.90;6.53;;;43.30;32.60;;;;;;5010566;28;20427;-64
2022/06/19 12:58:19;;;;;;;9.17;6.23;;;43.00;32.10;;;;;;5011464;28;20504;-64
2022/06/19 13:00:50;;;;;;;9.80;6.63;;;43.60;32.30;;;;;;5011431;28;20529;-67
2022/06/19 13:03:52;;;;;;;9.93;6.57;;;43.90;31.80;;;;;;5013691;28;20435;-64
2022/06/19 13:06:32;;;;;;;7.83;5.67;;;43.40;32.00;;;;;;5012878;28;20461;-64
2022/06/19 13:09:21;;;;;;;6.30;5.70;;;43.80;31.60;;;;;;5011443;28;20464;-63
2022/06/19 13:11:52;;;;;;;8.83;6.40;;;44.20;31.50;;;;;;4991619;28;20438;-64
2022/06/19 13:14:29;;;;;;;7.50;6.17;;;44.10;31.30;;;;;;5008831;28;20474;-64